<?xml version="1.0" encoding="UTF-8" standalone="no" ?>
<gpx xmlns="http://www.topografix.com/GPX/1/1" xmlns:xsi="http://www.w3.org/2001/XMLSchema-instance" xsi:schemaLocation="http://www.topografix.com/GPX/1/1 http://www.topografix.com/GPX/1/1/gpx.xsd" version="1.1" creator="VisuGPX - https://www.visugpx.com">
  <metadata>
    <name>Rouans_GrdCheminMaraisAcheneauMessanCheix_11-23km</name>
    <desc><![CDATA[gnerando idor:6533359_8371104_8372014]]></desc>
  </metadata>
  <trk>
    <name><![CDATA[Rouans_AR MessanCheix_10.7km-8371104]]></name>
    <extensions>
      <line xmlns="http://www.topografix.com/GPX/gpx_style/0/2">
        <color>FF0000</color>
        <width>4</width>
      </line>
    </extensions>
    <trkseg>
      <trkpt lat="47.19246" lon="-1.85392">
        <ele>3</ele>
        <time>2023-11-12T06:24:02Z</time>
      </trkpt>
      <trkpt lat="47.19247" lon="-1.85394">
        <ele>3</ele>
        <time>2023-11-12T06:24:04Z</time>
      </trkpt>
      <trkpt lat="47.19246" lon="-1.85392">
        <ele>3</ele>
        <time>2023-11-12T06:24:07Z</time>
      </trkpt>
      <trkpt lat="47.19246" lon="-1.85394">
        <ele>3</ele>
        <time>2023-11-12T06:24:08Z</time>
      </trkpt>
      <trkpt lat="47.19251" lon="-1.85402">
        <ele>3</ele>
        <time>2023-11-12T06:24:18Z</time>
      </trkpt>
      <trkpt lat="47.19274" lon="-1.85429">
        <ele>3</ele>
        <time>2023-11-12T06:24:57Z</time>
      </trkpt>
      <trkpt lat="47.19265" lon="-1.85416">
        <ele>3</ele>
        <time>2023-11-12T06:25:14Z</time>
      </trkpt>
      <trkpt lat="47.19255" lon="-1.8541">
        <ele>3</ele>
        <time>2023-11-12T06:25:29Z</time>
      </trkpt>
      <trkpt lat="47.19253" lon="-1.85412">
        <ele>3</ele>
        <time>2023-11-12T06:25:32Z</time>
      </trkpt>
      <trkpt lat="47.19235" lon="-1.85372">
        <ele>4</ele>
        <time>2023-11-12T06:26:15Z</time>
      </trkpt>
      <trkpt lat="47.19233" lon="-1.85358">
        <ele>4</ele>
        <time>2023-11-12T06:26:28Z</time>
      </trkpt>
      <trkpt lat="47.19251" lon="-1.85317">
        <ele>4</ele>
        <time>2023-11-12T06:27:13Z</time>
      </trkpt>
      <trkpt lat="47.19246" lon="-1.85303">
        <ele>4</ele>
        <time>2023-11-12T06:27:27Z</time>
      </trkpt>
      <trkpt lat="47.19243" lon="-1.853">
        <ele>4</ele>
        <time>2023-11-12T06:27:32Z</time>
      </trkpt>
      <trkpt lat="47.19229" lon="-1.8528">
        <ele>4</ele>
        <time>2023-11-12T06:27:58Z</time>
      </trkpt>
      <trkpt lat="47.19203" lon="-1.85213">
        <ele>3</ele>
        <time>2023-11-12T06:29:08Z</time>
      </trkpt>
      <trkpt lat="47.192" lon="-1.85198">
        <ele>3</ele>
        <time>2023-11-12T06:29:22Z</time>
      </trkpt>
      <trkpt lat="47.19178" lon="-1.85119">
        <ele>2</ele>
        <time>2023-11-12T06:30:39Z</time>
      </trkpt>
      <trkpt lat="47.19164" lon="-1.85028">
        <ele>2</ele>
        <time>2023-11-12T06:32:04Z</time>
      </trkpt>
      <trkpt lat="47.19164" lon="-1.85005">
        <ele>2</ele>
        <time>2023-11-12T06:32:25Z</time>
      </trkpt>
      <trkpt lat="47.19158" lon="-1.84975">
        <ele>3</ele>
        <time>2023-11-12T06:32:53Z</time>
      </trkpt>
      <trkpt lat="47.19152" lon="-1.84962">
        <ele>3</ele>
        <time>2023-11-12T06:33:08Z</time>
      </trkpt>
      <trkpt lat="47.19134" lon="-1.84935">
        <ele>4</ele>
        <time>2023-11-12T06:33:42Z</time>
      </trkpt>
      <trkpt lat="47.19072" lon="-1.84911">
        <ele>3</ele>
        <time>2023-11-12T06:35:07Z</time>
      </trkpt>
      <trkpt lat="47.19066" lon="-1.84905">
        <ele>2</ele>
        <time>2023-11-12T06:35:17Z</time>
      </trkpt>
      <trkpt lat="47.19061" lon="-1.84882">
        <ele>2</ele>
        <time>2023-11-12T06:35:39Z</time>
      </trkpt>
      <trkpt lat="47.19058" lon="-1.84836">
        <ele>2</ele>
        <time>2023-11-12T06:36:21Z</time>
      </trkpt>
      <trkpt lat="47.19062" lon="-1.84805">
        <ele>2</ele>
        <time>2023-11-12T06:36:49Z</time>
      </trkpt>
      <trkpt lat="47.19066" lon="-1.84791">
        <ele>2</ele>
        <time>2023-11-12T06:37:03Z</time>
      </trkpt>
      <trkpt lat="47.19076" lon="-1.84774">
        <ele>1</ele>
        <time>2023-11-12T06:37:24Z</time>
      </trkpt>
      <trkpt lat="47.19094" lon="-1.84759">
        <ele>1</ele>
        <time>2023-11-12T06:37:51Z</time>
      </trkpt>
      <trkpt lat="47.19133" lon="-1.84746">
        <ele>2</ele>
        <time>2023-11-12T06:38:45Z</time>
      </trkpt>
      <trkpt lat="47.19143" lon="-1.84727">
        <ele>3</ele>
        <time>2023-11-12T06:39:06Z</time>
      </trkpt>
      <trkpt lat="47.19142" lon="-1.84714">
        <ele>3</ele>
        <time>2023-11-12T06:39:18Z</time>
      </trkpt>
      <trkpt lat="47.19134" lon="-1.84673">
        <ele>3</ele>
        <time>2023-11-12T06:39:57Z</time>
      </trkpt>
      <trkpt lat="47.19135" lon="-1.84643">
        <ele>3</ele>
        <time>2023-11-12T06:40:24Z</time>
      </trkpt>
      <trkpt lat="47.19131" lon="-1.84611">
        <ele>3</ele>
        <time>2023-11-12T06:40:54Z</time>
      </trkpt>
      <trkpt lat="47.19123" lon="-1.84585">
        <ele>2</ele>
        <time>2023-11-12T06:41:20Z</time>
      </trkpt>
      <trkpt lat="47.19111" lon="-1.84561">
        <ele>2</ele>
        <time>2023-11-12T06:41:47Z</time>
      </trkpt>
      <trkpt lat="47.19107" lon="-1.84545">
        <ele>2</ele>
        <time>2023-11-12T06:42:02Z</time>
      </trkpt>
      <trkpt lat="47.19103" lon="-1.84498">
        <ele>3</ele>
        <time>2023-11-12T06:42:45Z</time>
      </trkpt>
      <trkpt lat="47.19105" lon="-1.84441">
        <ele>3</ele>
        <time>2023-11-12T06:43:37Z</time>
      </trkpt>
      <trkpt lat="47.19111" lon="-1.84392">
        <ele>3</ele>
        <time>2023-11-12T06:44:22Z</time>
      </trkpt>
      <trkpt lat="47.1911" lon="-1.84378">
        <ele>3</ele>
        <time>2023-11-12T06:44:35Z</time>
      </trkpt>
      <trkpt lat="47.19113" lon="-1.84359">
        <ele>3</ele>
        <time>2023-11-12T06:44:52Z</time>
      </trkpt>
      <trkpt lat="47.19111" lon="-1.84315">
        <ele>3</ele>
        <time>2023-11-12T06:45:32Z</time>
      </trkpt>
      <trkpt lat="47.19104" lon="-1.8425">
        <ele>3</ele>
        <time>2023-11-12T06:46:32Z</time>
      </trkpt>
      <trkpt lat="47.19106" lon="-1.84192">
        <ele>3</ele>
        <time>2023-11-12T06:47:25Z</time>
      </trkpt>
      <trkpt lat="47.1911" lon="-1.84162">
        <ele>3</ele>
        <time>2023-11-12T06:47:52Z</time>
      </trkpt>
      <trkpt lat="47.19118" lon="-1.84147">
        <ele>4</ele>
        <time>2023-11-12T06:48:10Z</time>
      </trkpt>
      <trkpt lat="47.19133" lon="-1.84134">
        <ele>6</ele>
        <time>2023-11-12T06:48:33Z</time>
      </trkpt>
      <trkpt lat="47.19167" lon="-1.84121">
        <ele>8</ele>
        <time>2023-11-12T06:49:20Z</time>
      </trkpt>
      <trkpt lat="47.19188" lon="-1.84119">
        <ele>8</ele>
        <time>2023-11-12T06:49:48Z</time>
      </trkpt>
      <trkpt lat="47.19197" lon="-1.84114">
        <ele>8</ele>
        <time>2023-11-12T06:50:01Z</time>
      </trkpt>
      <trkpt lat="47.19207" lon="-1.8406">
        <ele>9</ele>
        <time>2023-11-12T06:50:51Z</time>
      </trkpt>
      <trkpt lat="47.19208" lon="-1.84044">
        <ele>10</ele>
        <time>2023-11-12T06:51:06Z</time>
      </trkpt>
      <trkpt lat="47.19208" lon="-1.84031">
        <ele>10</ele>
        <time>2023-11-12T06:51:18Z</time>
      </trkpt>
      <trkpt lat="47.19205" lon="-1.84025">
        <ele>10</ele>
        <time>2023-11-12T06:51:25Z</time>
      </trkpt>
      <trkpt lat="47.19202" lon="-1.84005">
        <ele>11</ele>
        <time>2023-11-12T06:51:43Z</time>
      </trkpt>
      <trkpt lat="47.19202" lon="-1.83988">
        <ele>11</ele>
        <time>2023-11-12T06:51:59Z</time>
      </trkpt>
      <trkpt lat="47.19193" lon="-1.83944">
        <ele>11</ele>
        <time>2023-11-12T06:52:40Z</time>
      </trkpt>
      <trkpt lat="47.1915" lon="-1.83792">
        <ele>11</ele>
        <time>2023-11-12T06:55:10Z</time>
      </trkpt>
      <trkpt lat="47.19151" lon="-1.83788">
        <ele>11</ele>
        <time>2023-11-12T06:55:13Z</time>
      </trkpt>
      <trkpt lat="47.19135" lon="-1.83691">
        <ele>10</ele>
        <time>2023-11-12T06:56:44Z</time>
      </trkpt>
      <trkpt lat="47.19129" lon="-1.83605">
        <ele>10</ele>
        <time>2023-11-12T06:58:02Z</time>
      </trkpt>
      <trkpt lat="47.1913" lon="-1.83586">
        <ele>11</ele>
        <time>2023-11-12T06:58:20Z</time>
      </trkpt>
      <trkpt lat="47.19123" lon="-1.83519">
        <ele>14</ele>
        <time>2023-11-12T06:59:21Z</time>
      </trkpt>
      <trkpt lat="47.19119" lon="-1.83502">
        <ele>14</ele>
        <time>2023-11-12T06:59:37Z</time>
      </trkpt>
      <trkpt lat="47.19112" lon="-1.83496">
        <ele>14</ele>
        <time>2023-11-12T06:59:48Z</time>
      </trkpt>
      <trkpt lat="47.19107" lon="-1.83494">
        <ele>14</ele>
        <time>2023-11-12T06:59:55Z</time>
      </trkpt>
      <trkpt lat="47.19085" lon="-1.83501">
        <ele>14</ele>
        <time>2023-11-12T07:00:25Z</time>
      </trkpt>
      <trkpt lat="47.19075" lon="-1.83507">
        <ele>13</ele>
        <time>2023-11-12T07:00:40Z</time>
      </trkpt>
      <trkpt lat="47.19023" lon="-1.83518">
        <ele>13</ele>
        <time>2023-11-12T07:01:50Z</time>
      </trkpt>
      <trkpt lat="47.18956" lon="-1.83539">
        <ele>11</ele>
        <time>2023-11-12T07:03:21Z</time>
      </trkpt>
      <trkpt lat="47.18882" lon="-1.83558">
        <ele>11</ele>
        <time>2023-11-12T07:05:01Z</time>
      </trkpt>
      <trkpt lat="47.18879" lon="-1.8356">
        <ele>11</ele>
        <time>2023-11-12T07:05:06Z</time>
      </trkpt>
      <trkpt lat="47.18796" lon="-1.83589">
        <ele>11</ele>
        <time>2023-11-12T07:07:00Z</time>
      </trkpt>
      <trkpt lat="47.18752" lon="-1.83609">
        <ele>11</ele>
        <time>2023-11-12T07:08:01Z</time>
      </trkpt>
      <trkpt lat="47.18722" lon="-1.83619">
        <ele>11</ele>
        <time>2023-11-12T07:08:42Z</time>
      </trkpt>
      <trkpt lat="47.18692" lon="-1.83624">
        <ele>10</ele>
        <time>2023-11-12T07:09:22Z</time>
      </trkpt>
      <trkpt lat="47.18648" lon="-1.83639">
        <ele>9</ele>
        <time>2023-11-12T07:10:23Z</time>
      </trkpt>
      <trkpt lat="47.18632" lon="-1.83651">
        <ele>8</ele>
        <time>2023-11-12T07:10:47Z</time>
      </trkpt>
      <trkpt lat="47.18624" lon="-1.83647">
        <ele>8</ele>
        <time>2023-11-12T07:10:58Z</time>
      </trkpt>
      <trkpt lat="47.18626" lon="-1.8365">
        <ele>8</ele>
        <time>2023-11-12T07:11:02Z</time>
      </trkpt>
      <trkpt lat="47.18624" lon="-1.83663">
        <ele>8</ele>
        <time>2023-11-12T07:11:14Z</time>
      </trkpt>
      <trkpt lat="47.18628" lon="-1.83697">
        <ele>7</ele>
        <time>2023-11-12T07:11:45Z</time>
      </trkpt>
      <trkpt lat="47.18628" lon="-1.83735">
        <ele>6</ele>
        <time>2023-11-12T07:12:20Z</time>
      </trkpt>
      <trkpt lat="47.18616" lon="-1.83775">
        <ele>6</ele>
        <time>2023-11-12T07:12:59Z</time>
      </trkpt>
      <trkpt lat="47.18592" lon="-1.8381">
        <ele>6</ele>
        <time>2023-11-12T07:13:44Z</time>
      </trkpt>
      <trkpt lat="47.18554" lon="-1.83845">
        <ele>6</ele>
        <time>2023-11-12T07:14:44Z</time>
      </trkpt>
      <trkpt lat="47.18516" lon="-1.83879">
        <ele>5</ele>
        <time>2023-11-12T07:15:43Z</time>
      </trkpt>
      <trkpt lat="47.18497" lon="-1.83891">
        <ele>5</ele>
        <time>2023-11-12T07:16:11Z</time>
      </trkpt>
      <trkpt lat="47.18477" lon="-1.83893">
        <ele>4</ele>
        <time>2023-11-12T07:16:38Z</time>
      </trkpt>
      <trkpt lat="47.18449" lon="-1.83871">
        <ele>3</ele>
        <time>2023-11-12T07:17:20Z</time>
      </trkpt>
      <trkpt lat="47.18429" lon="-1.83852">
        <ele>3</ele>
        <time>2023-11-12T07:17:52Z</time>
      </trkpt>
      <trkpt lat="47.18403" lon="-1.83815">
        <ele>3</ele>
        <time>2023-11-12T07:18:40Z</time>
      </trkpt>
      <trkpt lat="47.18373" lon="-1.83759">
        <ele>2</ele>
        <time>2023-11-12T07:19:45Z</time>
      </trkpt>
      <trkpt lat="47.1835" lon="-1.83709">
        <ele>2</ele>
        <time>2023-11-12T07:20:40Z</time>
      </trkpt>
      <trkpt lat="47.18345" lon="-1.83694">
        <ele>2</ele>
        <time>2023-11-12T07:20:55Z</time>
      </trkpt>
      <trkpt lat="47.1834" lon="-1.83686">
        <ele>2</ele>
        <time>2023-11-12T07:21:05Z</time>
      </trkpt>
      <trkpt lat="47.18332" lon="-1.83657">
        <ele>2</ele>
        <time>2023-11-12T07:21:33Z</time>
      </trkpt>
      <trkpt lat="47.1833" lon="-1.83614">
        <ele>2</ele>
        <time>2023-11-12T07:22:12Z</time>
      </trkpt>
      <trkpt lat="47.18338" lon="-1.83581">
        <ele>3</ele>
        <time>2023-11-12T07:22:44Z</time>
      </trkpt>
      <trkpt lat="47.18352" lon="-1.83565">
        <ele>3</ele>
        <time>2023-11-12T07:23:08Z</time>
      </trkpt>
      <trkpt lat="47.18363" lon="-1.83556">
        <ele>4</ele>
        <time>2023-11-12T07:23:24Z</time>
      </trkpt>
      <trkpt lat="47.18372" lon="-1.83539">
        <ele>4</ele>
        <time>2023-11-12T07:23:44Z</time>
      </trkpt>
      <trkpt lat="47.18385" lon="-1.83526">
        <ele>4</ele>
        <time>2023-11-12T07:24:05Z</time>
      </trkpt>
      <trkpt lat="47.18412" lon="-1.83476">
        <ele>4</ele>
        <time>2023-11-12T07:25:03Z</time>
      </trkpt>
      <trkpt lat="47.18417" lon="-1.83465">
        <ele>4</ele>
        <time>2023-11-12T07:25:15Z</time>
      </trkpt>
      <trkpt lat="47.18426" lon="-1.83444">
        <ele>5</ele>
        <time>2023-11-12T07:25:37Z</time>
      </trkpt>
      <trkpt lat="47.18431" lon="-1.83417">
        <ele>5</ele>
        <time>2023-11-12T07:26:03Z</time>
      </trkpt>
      <trkpt lat="47.18429" lon="-1.83402">
        <ele>5</ele>
        <time>2023-11-12T07:26:17Z</time>
      </trkpt>
      <trkpt lat="47.18419" lon="-1.834">
        <ele>5</ele>
        <time>2023-11-12T07:26:30Z</time>
      </trkpt>
      <trkpt lat="47.18409" lon="-1.83404">
        <ele>5</ele>
        <time>2023-11-12T07:26:44Z</time>
      </trkpt>
      <trkpt lat="47.18407" lon="-1.83405">
        <ele>5</ele>
        <time>2023-11-12T07:26:47Z</time>
      </trkpt>
      <trkpt lat="47.184" lon="-1.83406">
        <ele>5</ele>
        <time>2023-11-12T07:26:56Z</time>
      </trkpt>
      <trkpt lat="47.18392" lon="-1.83412">
        <ele>5</ele>
        <time>2023-11-12T07:27:08Z</time>
      </trkpt>
      <trkpt lat="47.18378" lon="-1.83404">
        <ele>5</ele>
        <time>2023-11-12T07:27:28Z</time>
      </trkpt>
      <trkpt lat="47.1835" lon="-1.83397">
        <ele>5</ele>
        <time>2023-11-12T07:28:06Z</time>
      </trkpt>
      <trkpt lat="47.18333" lon="-1.83403">
        <ele>5</ele>
        <time>2023-11-12T07:28:29Z</time>
      </trkpt>
      <trkpt lat="47.18319" lon="-1.83407">
        <ele>5</ele>
        <time>2023-11-12T07:28:48Z</time>
      </trkpt>
      <trkpt lat="47.18315" lon="-1.83406">
        <ele>5</ele>
        <time>2023-11-12T07:28:54Z</time>
      </trkpt>
      <trkpt lat="47.18294" lon="-1.83412">
        <ele>4</ele>
        <time>2023-11-12T07:29:22Z</time>
      </trkpt>
      <trkpt lat="47.1827" lon="-1.83394">
        <ele>4</ele>
        <time>2023-11-12T07:29:58Z</time>
      </trkpt>
      <trkpt lat="47.18245" lon="-1.83374">
        <ele>4</ele>
        <time>2023-11-12T07:30:36Z</time>
      </trkpt>
      <trkpt lat="47.18236" lon="-1.83354">
        <ele>4</ele>
        <time>2023-11-12T07:30:58Z</time>
      </trkpt>
      <trkpt lat="47.18201" lon="-1.83301">
        <ele>3</ele>
        <time>2023-11-12T07:32:05Z</time>
      </trkpt>
      <trkpt lat="47.18185" lon="-1.83258">
        <ele>3</ele>
        <time>2023-11-12T07:32:49Z</time>
      </trkpt>
      <trkpt lat="47.18163" lon="-1.83224">
        <ele>2</ele>
        <time>2023-11-12T07:33:32Z</time>
      </trkpt>
      <trkpt lat="47.18159" lon="-1.83213">
        <ele>2</ele>
        <time>2023-11-12T07:33:43Z</time>
      </trkpt>
      <trkpt lat="47.1816" lon="-1.83179">
        <ele>2</ele>
        <time>2023-11-12T07:34:14Z</time>
      </trkpt>
      <trkpt lat="47.18146" lon="-1.83119">
        <ele>2</ele>
        <time>2023-11-12T07:35:12Z</time>
      </trkpt>
      <trkpt lat="47.18132" lon="-1.8308">
        <ele>2</ele>
        <time>2023-11-12T07:35:52Z</time>
      </trkpt>
      <trkpt lat="47.18133" lon="-1.83054">
        <ele>2</ele>
        <time>2023-11-12T07:36:15Z</time>
      </trkpt>
      <trkpt lat="47.18139" lon="-1.83031">
        <ele>3</ele>
        <time>2023-11-12T07:36:38Z</time>
      </trkpt>
      <trkpt lat="47.1815" lon="-1.83017">
        <ele>3</ele>
        <time>2023-11-12T07:36:57Z</time>
      </trkpt>
      <trkpt lat="47.18159" lon="-1.83013">
        <ele>4</ele>
        <time>2023-11-12T07:37:10Z</time>
      </trkpt>
      <trkpt lat="47.18161" lon="-1.83009">
        <ele>4</ele>
        <time>2023-11-12T07:37:14Z</time>
      </trkpt>
      <trkpt lat="47.18185" lon="-1.82999">
        <ele>4</ele>
        <time>2023-11-12T07:37:47Z</time>
      </trkpt>
      <trkpt lat="47.18191" lon="-1.82995">
        <ele>4</ele>
        <time>2023-11-12T07:37:56Z</time>
      </trkpt>
      <trkpt lat="47.182" lon="-1.82998">
        <ele>4</ele>
        <time>2023-11-12T07:38:09Z</time>
      </trkpt>
      <trkpt lat="47.18204" lon="-1.82996">
        <ele>3</ele>
        <time>2023-11-12T07:38:14Z</time>
      </trkpt>
      <trkpt lat="47.18247" lon="-1.82997">
        <ele>3</ele>
        <time>2023-11-12T07:39:12Z</time>
      </trkpt>
      <trkpt lat="47.18281" lon="-1.8297">
        <ele>4</ele>
        <time>2023-11-12T07:40:03Z</time>
      </trkpt>
      <trkpt lat="47.18292" lon="-1.82949">
        <ele>4</ele>
        <time>2023-11-12T07:40:27Z</time>
      </trkpt>
      <trkpt lat="47.18296" lon="-1.82929">
        <ele>4</ele>
        <time>2023-11-12T07:40:46Z</time>
      </trkpt>
      <trkpt lat="47.18312" lon="-1.82904">
        <ele>4</ele>
        <time>2023-11-12T07:41:17Z</time>
      </trkpt>
      <trkpt lat="47.18323" lon="-1.82895">
        <ele>4</ele>
        <time>2023-11-12T07:41:34Z</time>
      </trkpt>
      <trkpt lat="47.18332" lon="-1.82881">
        <ele>5</ele>
        <time>2023-11-12T07:41:52Z</time>
      </trkpt>
      <trkpt lat="47.18329" lon="-1.82865">
        <ele>4</ele>
        <time>2023-11-12T07:42:07Z</time>
      </trkpt>
      <trkpt lat="47.18323" lon="-1.82807">
        <ele>4</ele>
        <time>2023-11-12T07:43:00Z</time>
      </trkpt>
      <trkpt lat="47.18302" lon="-1.82757">
        <ele>3</ele>
        <time>2023-11-12T07:43:53Z</time>
      </trkpt>
      <trkpt lat="47.18297" lon="-1.82732">
        <ele>3</ele>
        <time>2023-11-12T07:44:17Z</time>
      </trkpt>
      <trkpt lat="47.18279" lon="-1.82686">
        <ele>3</ele>
        <time>2023-11-12T07:45:05Z</time>
      </trkpt>
      <trkpt lat="47.18276" lon="-1.82656">
        <ele>3</ele>
        <time>2023-11-12T07:45:32Z</time>
      </trkpt>
      <trkpt lat="47.18272" lon="-1.82634">
        <ele>3</ele>
        <time>2023-11-12T07:45:53Z</time>
      </trkpt>
      <trkpt lat="47.1827" lon="-1.8261">
        <ele>3</ele>
        <time>2023-11-12T07:46:15Z</time>
      </trkpt>
      <trkpt lat="47.18275" lon="-1.82551">
        <ele>3</ele>
        <time>2023-11-12T07:47:09Z</time>
      </trkpt>
      <trkpt lat="47.18277" lon="-1.82543">
        <ele>3</ele>
        <time>2023-11-12T07:47:17Z</time>
      </trkpt>
      <trkpt lat="47.18278" lon="-1.82538">
        <ele>3</ele>
        <time>2023-11-12T07:47:21Z</time>
      </trkpt>
      <trkpt lat="47.18288" lon="-1.82517">
        <ele>4</ele>
        <time>2023-11-12T07:47:45Z</time>
      </trkpt>
      <trkpt lat="47.18308" lon="-1.82489">
        <ele>4</ele>
        <time>2023-11-12T07:48:21Z</time>
      </trkpt>
      <trkpt lat="47.18315" lon="-1.82472">
        <ele>4</ele>
        <time>2023-11-12T07:48:40Z</time>
      </trkpt>
      <trkpt lat="47.183" lon="-1.8245">
        <ele>4</ele>
        <time>2023-11-12T07:49:08Z</time>
      </trkpt>
      <trkpt lat="47.18294" lon="-1.82444">
        <ele>4</ele>
        <time>2023-11-12T07:49:17Z</time>
      </trkpt>
      <trkpt lat="47.18278" lon="-1.82414">
        <ele>4</ele>
        <time>2023-11-12T07:49:52Z</time>
      </trkpt>
      <trkpt lat="47.18278" lon="-1.82387">
        <ele>4</ele>
        <time>2023-11-12T07:50:17Z</time>
      </trkpt>
      <trkpt lat="47.18283" lon="-1.82374">
        <ele>3</ele>
        <time>2023-11-12T07:50:30Z</time>
      </trkpt>
      <trkpt lat="47.18304" lon="-1.82359">
        <ele>3</ele>
        <time>2023-11-12T07:51:01Z</time>
      </trkpt>
      <trkpt lat="47.18313" lon="-1.82347">
        <ele>4</ele>
        <time>2023-11-12T07:51:17Z</time>
      </trkpt>
      <trkpt lat="47.18336" lon="-1.82326">
        <ele>4</ele>
        <time>2023-11-12T07:51:54Z</time>
      </trkpt>
      <trkpt lat="47.1834" lon="-1.82318">
        <ele>4</ele>
        <time>2023-11-12T07:52:03Z</time>
      </trkpt>
      <trkpt lat="47.18342" lon="-1.82289">
        <ele>4</ele>
        <time>2023-11-12T07:52:29Z</time>
      </trkpt>
      <trkpt lat="47.1834" lon="-1.82266">
        <ele>3</ele>
        <time>2023-11-12T07:52:50Z</time>
      </trkpt>
      <trkpt lat="47.18327" lon="-1.82238">
        <ele>3</ele>
        <time>2023-11-12T07:53:21Z</time>
      </trkpt>
      <trkpt lat="47.18265" lon="-1.82204">
        <ele>3</ele>
        <time>2023-11-12T07:54:49Z</time>
      </trkpt>
      <trkpt lat="47.18238" lon="-1.82193">
        <ele>4</ele>
        <time>2023-11-12T07:55:26Z</time>
      </trkpt>
      <trkpt lat="47.18228" lon="-1.82194">
        <ele>4</ele>
        <time>2023-11-12T07:55:40Z</time>
      </trkpt>
      <trkpt lat="47.18208" lon="-1.82222">
        <ele>3</ele>
        <time>2023-11-12T07:56:17Z</time>
      </trkpt>
      <trkpt lat="47.18201" lon="-1.82236">
        <ele>2</ele>
        <time>2023-11-12T07:56:32Z</time>
      </trkpt>
      <trkpt lat="47.1819" lon="-1.82243">
        <ele>2</ele>
        <time>2023-11-12T07:56:48Z</time>
      </trkpt>
      <trkpt lat="47.18174" lon="-1.82258">
        <ele>2</ele>
        <time>2023-11-12T07:57:14Z</time>
      </trkpt>
      <trkpt lat="47.1816" lon="-1.82264">
        <ele>2</ele>
        <time>2023-11-12T07:57:33Z</time>
      </trkpt>
      <trkpt lat="47.18147" lon="-1.82267">
        <ele>2</ele>
        <time>2023-11-12T07:57:51Z</time>
      </trkpt>
      <trkpt lat="47.18129" lon="-1.82256">
        <ele>2</ele>
        <time>2023-11-12T07:58:17Z</time>
      </trkpt>
      <trkpt lat="47.18111" lon="-1.82241">
        <ele>2</ele>
        <time>2023-11-12T07:58:44Z</time>
      </trkpt>
      <trkpt lat="47.18092" lon="-1.82229">
        <ele>1</ele>
        <time>2023-11-12T07:59:12Z</time>
      </trkpt>
      <trkpt lat="47.18089" lon="-1.82224">
        <ele>1</ele>
        <time>2023-11-12T07:59:18Z</time>
      </trkpt>
      <trkpt lat="47.18083" lon="-1.82223">
        <ele>1</ele>
        <time>2023-11-12T07:59:26Z</time>
      </trkpt>
      <trkpt lat="47.18078" lon="-1.82216">
        <ele>1</ele>
        <time>2023-11-12T07:59:35Z</time>
      </trkpt>
      <trkpt lat="47.18075" lon="-1.8219">
        <ele>1</ele>
        <time>2023-11-12T07:59:59Z</time>
      </trkpt>
      <trkpt lat="47.1808" lon="-1.82093">
        <ele>2</ele>
        <time>2023-11-12T08:01:27Z</time>
      </trkpt>
      <trkpt lat="47.1808" lon="-1.82047">
        <ele>2</ele>
        <time>2023-11-12T08:02:09Z</time>
      </trkpt>
      <trkpt lat="47.18082" lon="-1.82025">
        <ele>2</ele>
        <time>2023-11-12T08:02:29Z</time>
      </trkpt>
      <trkpt lat="47.18079" lon="-1.81935">
        <ele>3</ele>
        <time>2023-11-12T08:03:51Z</time>
      </trkpt>
      <trkpt lat="47.18081" lon="-1.81907">
        <ele>3</ele>
        <time>2023-11-12T08:04:17Z</time>
      </trkpt>
      <trkpt lat="47.18077" lon="-1.81843">
        <ele>3</ele>
        <time>2023-11-12T08:05:15Z</time>
      </trkpt>
      <trkpt lat="47.18054" lon="-1.81754">
        <ele>3</ele>
        <time>2023-11-12T08:06:41Z</time>
      </trkpt>
      <trkpt lat="47.18048" lon="-1.81644">
        <ele>5</ele>
        <time>2023-11-12T08:08:21Z</time>
      </trkpt>
      <trkpt lat="47.18049" lon="-1.81645">
        <ele>5</ele>
        <time>2023-11-12T08:08:23Z</time>
      </trkpt>
      <trkpt lat="47.1807" lon="-1.81636">
        <ele>6</ele>
        <time>2023-11-12T08:08:52Z</time>
      </trkpt>
      <trkpt lat="47.18082" lon="-1.81636">
        <ele>7</ele>
        <time>2023-11-12T08:09:08Z</time>
      </trkpt>
      <trkpt lat="47.18103" lon="-1.8164">
        <ele>8</ele>
        <time>2023-11-12T08:09:36Z</time>
      </trkpt>
      <trkpt lat="47.18116" lon="-1.81635">
        <ele>9</ele>
        <time>2023-11-12T08:09:54Z</time>
      </trkpt>
      <trkpt lat="47.1812" lon="-1.81629">
        <ele>10</ele>
        <time>2023-11-12T08:10:02Z</time>
      </trkpt>
      <trkpt lat="47.18119" lon="-1.81616">
        <ele>10</ele>
        <time>2023-11-12T08:10:14Z</time>
      </trkpt>
      <trkpt lat="47.18123" lon="-1.81611">
        <ele>10</ele>
        <time>2023-11-12T08:10:21Z</time>
      </trkpt>
      <trkpt lat="47.18124" lon="-1.81603">
        <ele>11</ele>
        <time>2023-11-12T08:10:28Z</time>
      </trkpt>
      <trkpt lat="47.18128" lon="-1.81593">
        <ele>11</ele>
        <time>2023-11-12T08:10:39Z</time>
      </trkpt>
      <trkpt lat="47.18138" lon="-1.81586">
        <ele>12</ele>
        <time>2023-11-12T08:10:54Z</time>
      </trkpt>
      <trkpt lat="47.18149" lon="-1.81594">
        <ele>13</ele>
        <time>2023-11-12T08:11:10Z</time>
      </trkpt>
      <trkpt lat="47.18163" lon="-1.81594">
        <ele>13</ele>
        <time>2023-11-12T08:11:29Z</time>
      </trkpt>
      <trkpt lat="47.18159" lon="-1.8159">
        <ele>13</ele>
        <time>2023-11-12T08:11:35Z</time>
      </trkpt>
      <trkpt lat="47.18162" lon="-1.81581">
        <ele>14</ele>
        <time>2023-11-12T08:11:44Z</time>
      </trkpt>
      <trkpt lat="47.1816" lon="-1.8157">
        <ele>14</ele>
        <time>2023-11-12T08:11:54Z</time>
      </trkpt>
      <trkpt lat="47.18164" lon="-1.81591">
        <ele>14</ele>
        <time>2023-11-12T08:12:14Z</time>
      </trkpt>
      <trkpt lat="47.18169" lon="-1.81605">
        <ele>13</ele>
        <time>2023-11-12T08:12:29Z</time>
      </trkpt>
      <trkpt lat="47.18176" lon="-1.81614">
        <ele>13</ele>
        <time>2023-11-12T08:12:41Z</time>
      </trkpt>
      <trkpt lat="47.18191" lon="-1.81619">
        <ele>12</ele>
        <time>2023-11-12T08:13:01Z</time>
      </trkpt>
      <trkpt lat="47.18192" lon="-1.81622">
        <ele>12</ele>
        <time>2023-11-12T08:13:05Z</time>
      </trkpt>
      <trkpt lat="47.18192" lon="-1.81641">
        <ele>12</ele>
        <time>2023-11-12T08:13:22Z</time>
      </trkpt>
      <trkpt lat="47.18187" lon="-1.81655">
        <ele>11</ele>
        <time>2023-11-12T08:13:36Z</time>
      </trkpt>
      <trkpt lat="47.18188" lon="-1.81669">
        <ele>11</ele>
        <time>2023-11-12T08:13:49Z</time>
      </trkpt>
      <trkpt lat="47.18179" lon="-1.81731">
        <ele>9</ele>
        <time>2023-11-12T08:14:46Z</time>
      </trkpt>
      <trkpt lat="47.18168" lon="-1.81751">
        <ele>9</ele>
        <time>2023-11-12T08:15:10Z</time>
      </trkpt>
      <trkpt lat="47.18152" lon="-1.81766">
        <ele>8</ele>
        <time>2023-11-12T08:15:35Z</time>
      </trkpt>
      <trkpt lat="47.18133" lon="-1.81778">
        <ele>7</ele>
        <time>2023-11-12T08:16:03Z</time>
      </trkpt>
      <trkpt lat="47.18098" lon="-1.81788">
        <ele>4</ele>
        <time>2023-11-12T08:16:50Z</time>
      </trkpt>
      <trkpt lat="47.18082" lon="-1.81809">
        <ele>3</ele>
        <time>2023-11-12T08:17:19Z</time>
      </trkpt>
      <trkpt lat="47.18074" lon="-1.81834">
        <ele>3</ele>
        <time>2023-11-12T08:17:44Z</time>
      </trkpt>
      <trkpt lat="47.18077" lon="-1.81992">
        <ele>2</ele>
        <time>2023-11-12T08:20:07Z</time>
      </trkpt>
      <trkpt lat="47.18076" lon="-1.82143">
        <ele>1</ele>
        <time>2023-11-12T08:22:24Z</time>
      </trkpt>
      <trkpt lat="47.18074" lon="-1.82176">
        <ele>1</ele>
        <time>2023-11-12T08:22:54Z</time>
      </trkpt>
      <trkpt lat="47.18079" lon="-1.82208">
        <ele>1</ele>
        <time>2023-11-12T08:23:24Z</time>
      </trkpt>
      <trkpt lat="47.181" lon="-1.82234">
        <ele>2</ele>
        <time>2023-11-12T08:24:01Z</time>
      </trkpt>
      <trkpt lat="47.18128" lon="-1.82249">
        <ele>2</ele>
        <time>2023-11-12T08:24:40Z</time>
      </trkpt>
      <trkpt lat="47.18151" lon="-1.82257">
        <ele>2</ele>
        <time>2023-11-12T08:25:12Z</time>
      </trkpt>
      <trkpt lat="47.18167" lon="-1.82255">
        <ele>3</ele>
        <time>2023-11-12T08:25:33Z</time>
      </trkpt>
      <trkpt lat="47.18196" lon="-1.82239">
        <ele>2</ele>
        <time>2023-11-12T08:26:15Z</time>
      </trkpt>
      <trkpt lat="47.18232" lon="-1.82195">
        <ele>4</ele>
        <time>2023-11-12T08:27:17Z</time>
      </trkpt>
      <trkpt lat="47.18242" lon="-1.82201">
        <ele>3</ele>
        <time>2023-11-12T08:27:32Z</time>
      </trkpt>
      <trkpt lat="47.1826" lon="-1.82206">
        <ele>3</ele>
        <time>2023-11-12T08:27:56Z</time>
      </trkpt>
      <trkpt lat="47.18275" lon="-1.82217">
        <ele>2</ele>
        <time>2023-11-12T08:28:18Z</time>
      </trkpt>
      <trkpt lat="47.18294" lon="-1.82221">
        <ele>3</ele>
        <time>2023-11-12T08:28:44Z</time>
      </trkpt>
      <trkpt lat="47.18315" lon="-1.82236">
        <ele>3</ele>
        <time>2023-11-12T08:29:15Z</time>
      </trkpt>
      <trkpt lat="47.18327" lon="-1.82249">
        <ele>3</ele>
        <time>2023-11-12T08:29:35Z</time>
      </trkpt>
      <trkpt lat="47.18334" lon="-1.82275">
        <ele>3</ele>
        <time>2023-11-12T08:30:00Z</time>
      </trkpt>
      <trkpt lat="47.18336" lon="-1.82288">
        <ele>4</ele>
        <time>2023-11-12T08:30:12Z</time>
      </trkpt>
      <trkpt lat="47.18333" lon="-1.82321">
        <ele>4</ele>
        <time>2023-11-12T08:30:43Z</time>
      </trkpt>
      <trkpt lat="47.18304" lon="-1.8235">
        <ele>3</ele>
        <time>2023-11-12T08:31:29Z</time>
      </trkpt>
      <trkpt lat="47.18282" lon="-1.82367">
        <ele>3</ele>
        <time>2023-11-12T08:32:03Z</time>
      </trkpt>
      <trkpt lat="47.18276" lon="-1.82375">
        <ele>3</ele>
        <time>2023-11-12T08:32:13Z</time>
      </trkpt>
      <trkpt lat="47.1827" lon="-1.82397">
        <ele>4</ele>
        <time>2023-11-12T08:32:35Z</time>
      </trkpt>
      <trkpt lat="47.18277" lon="-1.82424">
        <ele>4</ele>
        <time>2023-11-12T08:33:01Z</time>
      </trkpt>
      <trkpt lat="47.18295" lon="-1.82456">
        <ele>4</ele>
        <time>2023-11-12T08:33:39Z</time>
      </trkpt>
      <trkpt lat="47.18307" lon="-1.82466">
        <ele>4</ele>
        <time>2023-11-12T08:33:57Z</time>
      </trkpt>
      <trkpt lat="47.18309" lon="-1.82475">
        <ele>4</ele>
        <time>2023-11-12T08:34:06Z</time>
      </trkpt>
      <trkpt lat="47.18302" lon="-1.82485">
        <ele>4</ele>
        <time>2023-11-12T08:34:19Z</time>
      </trkpt>
      <trkpt lat="47.18301" lon="-1.82488">
        <ele>4</ele>
        <time>2023-11-12T08:34:22Z</time>
      </trkpt>
      <trkpt lat="47.18295" lon="-1.82491">
        <ele>4</ele>
        <time>2023-11-12T08:34:30Z</time>
      </trkpt>
      <trkpt lat="47.18286" lon="-1.82502">
        <ele>3</ele>
        <time>2023-11-12T08:34:46Z</time>
      </trkpt>
      <trkpt lat="47.18277" lon="-1.82523">
        <ele>3</ele>
        <time>2023-11-12T08:35:08Z</time>
      </trkpt>
      <trkpt lat="47.18267" lon="-1.82576">
        <ele>3</ele>
        <time>2023-11-12T08:35:58Z</time>
      </trkpt>
      <trkpt lat="47.18274" lon="-1.82683">
        <ele>3</ele>
        <time>2023-11-12T08:37:36Z</time>
      </trkpt>
      <trkpt lat="47.18285" lon="-1.82712">
        <ele>3</ele>
        <time>2023-11-12T08:38:06Z</time>
      </trkpt>
      <trkpt lat="47.18303" lon="-1.82774">
        <ele>3</ele>
        <time>2023-11-12T08:39:07Z</time>
      </trkpt>
      <trkpt lat="47.18321" lon="-1.82819">
        <ele>4</ele>
        <time>2023-11-12T08:39:54Z</time>
      </trkpt>
      <trkpt lat="47.18334" lon="-1.8289">
        <ele>5</ele>
        <time>2023-11-12T08:41:01Z</time>
      </trkpt>
      <trkpt lat="47.18317" lon="-1.82899">
        <ele>4</ele>
        <time>2023-11-12T08:41:25Z</time>
      </trkpt>
      <trkpt lat="47.18305" lon="-1.82913">
        <ele>4</ele>
        <time>2023-11-12T08:41:46Z</time>
      </trkpt>
      <trkpt lat="47.18297" lon="-1.8293">
        <ele>4</ele>
        <time>2023-11-12T08:42:04Z</time>
      </trkpt>
      <trkpt lat="47.18282" lon="-1.82968">
        <ele>4</ele>
        <time>2023-11-12T08:42:44Z</time>
      </trkpt>
      <trkpt lat="47.18266" lon="-1.82988">
        <ele>3</ele>
        <time>2023-11-12T08:43:12Z</time>
      </trkpt>
      <trkpt lat="47.18236" lon="-1.82994">
        <ele>3</ele>
        <time>2023-11-12T08:43:53Z</time>
      </trkpt>
      <trkpt lat="47.18207" lon="-1.82989">
        <ele>3</ele>
        <time>2023-11-12T08:44:32Z</time>
      </trkpt>
      <trkpt lat="47.1819" lon="-1.82988">
        <ele>3</ele>
        <time>2023-11-12T08:44:54Z</time>
      </trkpt>
      <trkpt lat="47.18174" lon="-1.82996">
        <ele>4</ele>
        <time>2023-11-12T08:45:17Z</time>
      </trkpt>
      <trkpt lat="47.18163" lon="-1.83004">
        <ele>4</ele>
        <time>2023-11-12T08:45:33Z</time>
      </trkpt>
      <trkpt lat="47.1816" lon="-1.83005">
        <ele>4</ele>
        <time>2023-11-12T08:45:37Z</time>
      </trkpt>
      <trkpt lat="47.18138" lon="-1.83031">
        <ele>3</ele>
        <time>2023-11-12T08:46:15Z</time>
      </trkpt>
      <trkpt lat="47.18134" lon="-1.8304">
        <ele>2</ele>
        <time>2023-11-12T08:46:25Z</time>
      </trkpt>
      <trkpt lat="47.18134" lon="-1.83056">
        <ele>2</ele>
        <time>2023-11-12T08:46:39Z</time>
      </trkpt>
      <trkpt lat="47.18138" lon="-1.83079">
        <ele>2</ele>
        <time>2023-11-12T08:47:01Z</time>
      </trkpt>
      <trkpt lat="47.18157" lon="-1.83153">
        <ele>2</ele>
        <time>2023-11-12T08:48:13Z</time>
      </trkpt>
      <trkpt lat="47.18178" lon="-1.83222">
        <ele>2</ele>
        <time>2023-11-12T08:49:21Z</time>
      </trkpt>
      <trkpt lat="47.18187" lon="-1.83238">
        <ele>3</ele>
        <time>2023-11-12T08:49:40Z</time>
      </trkpt>
      <trkpt lat="47.18188" lon="-1.83245">
        <ele>3</ele>
        <time>2023-11-12T08:49:47Z</time>
      </trkpt>
      <trkpt lat="47.18195" lon="-1.83255">
        <ele>3</ele>
        <time>2023-11-12T08:50:00Z</time>
      </trkpt>
      <trkpt lat="47.18198" lon="-1.8327">
        <ele>3</ele>
        <time>2023-11-12T08:50:14Z</time>
      </trkpt>
      <trkpt lat="47.18219" lon="-1.83317">
        <ele>4</ele>
        <time>2023-11-12T08:51:05Z</time>
      </trkpt>
      <trkpt lat="47.18223" lon="-1.83333">
        <ele>4</ele>
        <time>2023-11-12T08:51:20Z</time>
      </trkpt>
      <trkpt lat="47.18239" lon="-1.8336">
        <ele>4</ele>
        <time>2023-11-12T08:51:53Z</time>
      </trkpt>
      <trkpt lat="47.18272" lon="-1.83392">
        <ele>4</ele>
        <time>2023-11-12T08:52:45Z</time>
      </trkpt>
      <trkpt lat="47.18297" lon="-1.8341">
        <ele>4</ele>
        <time>2023-11-12T08:53:23Z</time>
      </trkpt>
      <trkpt lat="47.18312" lon="-1.83415">
        <ele>5</ele>
        <time>2023-11-12T08:53:43Z</time>
      </trkpt>
      <trkpt lat="47.1834" lon="-1.834">
        <ele>5</ele>
        <time>2023-11-12T08:54:23Z</time>
      </trkpt>
      <trkpt lat="47.18352" lon="-1.834">
        <ele>5</ele>
        <time>2023-11-12T08:54:39Z</time>
      </trkpt>
      <trkpt lat="47.18357" lon="-1.83398">
        <ele>5</ele>
        <time>2023-11-12T08:54:46Z</time>
      </trkpt>
      <trkpt lat="47.18376" lon="-1.83402">
        <ele>5</ele>
        <time>2023-11-12T08:55:11Z</time>
      </trkpt>
      <trkpt lat="47.18394" lon="-1.83417">
        <ele>5</ele>
        <time>2023-11-12T08:55:39Z</time>
      </trkpt>
      <trkpt lat="47.18436" lon="-1.83416">
        <ele>5</ele>
        <time>2023-11-12T08:56:35Z</time>
      </trkpt>
      <trkpt lat="47.18439" lon="-1.83424">
        <ele>5</ele>
        <time>2023-11-12T08:56:43Z</time>
      </trkpt>
      <trkpt lat="47.18437" lon="-1.8343">
        <ele>5</ele>
        <time>2023-11-12T08:56:49Z</time>
      </trkpt>
      <trkpt lat="47.18426" lon="-1.83447">
        <ele>5</ele>
        <time>2023-11-12T08:57:11Z</time>
      </trkpt>
      <trkpt lat="47.18394" lon="-1.83518">
        <ele>4</ele>
        <time>2023-11-12T08:58:28Z</time>
      </trkpt>
      <trkpt lat="47.18376" lon="-1.83533">
        <ele>4</ele>
        <time>2023-11-12T08:58:56Z</time>
      </trkpt>
      <trkpt lat="47.18346" lon="-1.83566">
        <ele>3</ele>
        <time>2023-11-12T08:59:46Z</time>
      </trkpt>
      <trkpt lat="47.18334" lon="-1.83587">
        <ele>3</ele>
        <time>2023-11-12T09:00:10Z</time>
      </trkpt>
      <trkpt lat="47.18327" lon="-1.83611">
        <ele>2</ele>
        <time>2023-11-12T09:00:34Z</time>
      </trkpt>
      <trkpt lat="47.18329" lon="-1.83644">
        <ele>2</ele>
        <time>2023-11-12T09:01:04Z</time>
      </trkpt>
      <trkpt lat="47.18335" lon="-1.83672">
        <ele>2</ele>
        <time>2023-11-12T09:01:31Z</time>
      </trkpt>
      <trkpt lat="47.18355" lon="-1.83738">
        <ele>2</ele>
        <time>2023-11-12T09:02:36Z</time>
      </trkpt>
      <trkpt lat="47.18369" lon="-1.83762">
        <ele>2</ele>
        <time>2023-11-12T09:03:05Z</time>
      </trkpt>
      <trkpt lat="47.18401" lon="-1.83818">
        <ele>3</ele>
        <time>2023-11-12T09:04:11Z</time>
      </trkpt>
      <trkpt lat="47.18444" lon="-1.83866">
        <ele>3</ele>
        <time>2023-11-12T09:05:23Z</time>
      </trkpt>
      <trkpt lat="47.18466" lon="-1.83887">
        <ele>4</ele>
        <time>2023-11-12T09:05:58Z</time>
      </trkpt>
      <trkpt lat="47.18482" lon="-1.83897">
        <ele>4</ele>
        <time>2023-11-12T09:06:22Z</time>
      </trkpt>
      <trkpt lat="47.18497" lon="-1.83899">
        <ele>5</ele>
        <time>2023-11-12T09:06:42Z</time>
      </trkpt>
      <trkpt lat="47.18556" lon="-1.83845">
        <ele>6</ele>
        <time>2023-11-12T09:08:14Z</time>
      </trkpt>
      <trkpt lat="47.18603" lon="-1.83807">
        <ele>6</ele>
        <time>2023-11-12T09:09:26Z</time>
      </trkpt>
      <trkpt lat="47.18615" lon="-1.83784">
        <ele>6</ele>
        <time>2023-11-12T09:09:52Z</time>
      </trkpt>
      <trkpt lat="47.18626" lon="-1.83757">
        <ele>6</ele>
        <time>2023-11-12T09:10:21Z</time>
      </trkpt>
      <trkpt lat="47.18633" lon="-1.83718">
        <ele>7</ele>
        <time>2023-11-12T09:10:57Z</time>
      </trkpt>
      <trkpt lat="47.18632" lon="-1.83683">
        <ele>8</ele>
        <time>2023-11-12T09:11:29Z</time>
      </trkpt>
      <trkpt lat="47.18636" lon="-1.83661">
        <ele>8</ele>
        <time>2023-11-12T09:11:50Z</time>
      </trkpt>
      <trkpt lat="47.18648" lon="-1.83644">
        <ele>9</ele>
        <time>2023-11-12T09:12:12Z</time>
      </trkpt>
      <trkpt lat="47.18667" lon="-1.83636">
        <ele>9</ele>
        <time>2023-11-12T09:12:38Z</time>
      </trkpt>
      <trkpt lat="47.18728" lon="-1.83621">
        <ele>11</ele>
        <time>2023-11-12T09:14:01Z</time>
      </trkpt>
      <trkpt lat="47.18783" lon="-1.83603">
        <ele>11</ele>
        <time>2023-11-12T09:15:16Z</time>
      </trkpt>
      <trkpt lat="47.18844" lon="-1.83575">
        <ele>11</ele>
        <time>2023-11-12T09:16:41Z</time>
      </trkpt>
      <trkpt lat="47.1888" lon="-1.83561">
        <ele>11</ele>
        <time>2023-11-12T09:17:31Z</time>
      </trkpt>
      <trkpt lat="47.18911" lon="-1.83552">
        <ele>11</ele>
        <time>2023-11-12T09:18:13Z</time>
      </trkpt>
      <trkpt lat="47.18949" lon="-1.83547">
        <ele>11</ele>
        <time>2023-11-12T09:19:04Z</time>
      </trkpt>
      <trkpt lat="47.19002" lon="-1.83528">
        <ele>12</ele>
        <time>2023-11-12T09:20:17Z</time>
      </trkpt>
      <trkpt lat="47.19026" lon="-1.83525">
        <ele>12</ele>
        <time>2023-11-12T09:20:49Z</time>
      </trkpt>
      <trkpt lat="47.19106" lon="-1.83501">
        <ele>14</ele>
        <time>2023-11-12T09:22:38Z</time>
      </trkpt>
      <trkpt lat="47.19111" lon="-1.83501">
        <ele>14</ele>
        <time>2023-11-12T09:22:45Z</time>
      </trkpt>
      <trkpt lat="47.19115" lon="-1.83507">
        <ele>14</ele>
        <time>2023-11-12T09:22:52Z</time>
      </trkpt>
      <trkpt lat="47.19124" lon="-1.83586">
        <ele>10</ele>
        <time>2023-11-12T09:24:05Z</time>
      </trkpt>
      <trkpt lat="47.19122" lon="-1.83615">
        <ele>10</ele>
        <time>2023-11-12T09:24:31Z</time>
      </trkpt>
      <trkpt lat="47.19129" lon="-1.83689">
        <ele>10</ele>
        <time>2023-11-12T09:25:39Z</time>
      </trkpt>
      <trkpt lat="47.19128" lon="-1.83709">
        <ele>10</ele>
        <time>2023-11-12T09:25:57Z</time>
      </trkpt>
      <trkpt lat="47.19145" lon="-1.83769">
        <ele>11</ele>
        <time>2023-11-12T09:26:56Z</time>
      </trkpt>
      <trkpt lat="47.19154" lon="-1.83824">
        <ele>11</ele>
        <time>2023-11-12T09:27:48Z</time>
      </trkpt>
      <trkpt lat="47.19167" lon="-1.83857">
        <ele>11</ele>
        <time>2023-11-12T09:28:22Z</time>
      </trkpt>
      <trkpt lat="47.19174" lon="-1.83891">
        <ele>12</ele>
        <time>2023-11-12T09:28:54Z</time>
      </trkpt>
      <trkpt lat="47.19194" lon="-1.8397">
        <ele>11</ele>
        <time>2023-11-12T09:30:11Z</time>
      </trkpt>
      <trkpt lat="47.19195" lon="-1.83993">
        <ele>11</ele>
        <time>2023-11-12T09:30:32Z</time>
      </trkpt>
      <trkpt lat="47.19201" lon="-1.84011">
        <ele>11</ele>
        <time>2023-11-12T09:30:50Z</time>
      </trkpt>
      <trkpt lat="47.19205" lon="-1.84045">
        <ele>10</ele>
        <time>2023-11-12T09:31:21Z</time>
      </trkpt>
      <trkpt lat="47.19203" lon="-1.841">
        <ele>8</ele>
        <time>2023-11-12T09:32:11Z</time>
      </trkpt>
      <trkpt lat="47.19194" lon="-1.84112">
        <ele>8</ele>
        <time>2023-11-12T09:32:27Z</time>
      </trkpt>
      <trkpt lat="47.19181" lon="-1.84114">
        <ele>8</ele>
        <time>2023-11-12T09:32:45Z</time>
      </trkpt>
      <trkpt lat="47.19173" lon="-1.8412">
        <ele>8</ele>
        <time>2023-11-12T09:32:57Z</time>
      </trkpt>
      <trkpt lat="47.1916" lon="-1.84124">
        <ele>8</ele>
        <time>2023-11-12T09:33:15Z</time>
      </trkpt>
      <trkpt lat="47.19127" lon="-1.84142">
        <ele>5</ele>
        <time>2023-11-12T09:34:02Z</time>
      </trkpt>
      <trkpt lat="47.19122" lon="-1.84141">
        <ele>5</ele>
        <time>2023-11-12T09:34:08Z</time>
      </trkpt>
      <trkpt lat="47.19116" lon="-1.84143">
        <ele>4</ele>
        <time>2023-11-12T09:34:17Z</time>
      </trkpt>
      <trkpt lat="47.19104" lon="-1.84173">
        <ele>3</ele>
        <time>2023-11-12T09:34:48Z</time>
      </trkpt>
      <trkpt lat="47.19097" lon="-1.84224">
        <ele>3</ele>
        <time>2023-11-12T09:35:35Z</time>
      </trkpt>
      <trkpt lat="47.19096" lon="-1.8426">
        <ele>3</ele>
        <time>2023-11-12T09:36:08Z</time>
      </trkpt>
      <trkpt lat="47.19107" lon="-1.84329">
        <ele>2</ele>
        <time>2023-11-12T09:37:12Z</time>
      </trkpt>
      <trkpt lat="47.19109" lon="-1.84361">
        <ele>3</ele>
        <time>2023-11-12T09:37:41Z</time>
      </trkpt>
      <trkpt lat="47.19108" lon="-1.84418">
        <ele>3</ele>
        <time>2023-11-12T09:38:33Z</time>
      </trkpt>
      <trkpt lat="47.19106" lon="-1.84455">
        <ele>3</ele>
        <time>2023-11-12T09:39:07Z</time>
      </trkpt>
      <trkpt lat="47.19102" lon="-1.84473">
        <ele>3</ele>
        <time>2023-11-12T09:39:24Z</time>
      </trkpt>
      <trkpt lat="47.19102" lon="-1.84492">
        <ele>3</ele>
        <time>2023-11-12T09:39:41Z</time>
      </trkpt>
      <trkpt lat="47.191" lon="-1.84523">
        <ele>2</ele>
        <time>2023-11-12T09:40:09Z</time>
      </trkpt>
      <trkpt lat="47.19104" lon="-1.84556">
        <ele>2</ele>
        <time>2023-11-12T09:40:40Z</time>
      </trkpt>
      <trkpt lat="47.19123" lon="-1.84611">
        <ele>2</ele>
        <time>2023-11-12T09:41:36Z</time>
      </trkpt>
      <trkpt lat="47.19144" lon="-1.84716">
        <ele>3</ele>
        <time>2023-11-12T09:43:15Z</time>
      </trkpt>
      <trkpt lat="47.1914" lon="-1.84734">
        <ele>2</ele>
        <time>2023-11-12T09:43:32Z</time>
      </trkpt>
      <trkpt lat="47.19128" lon="-1.84742">
        <ele>2</ele>
        <time>2023-11-12T09:43:50Z</time>
      </trkpt>
      <trkpt lat="47.19114" lon="-1.84749">
        <ele>2</ele>
        <time>2023-11-12T09:44:09Z</time>
      </trkpt>
      <trkpt lat="47.19104" lon="-1.8475">
        <ele>1</ele>
        <time>2023-11-12T09:44:23Z</time>
      </trkpt>
      <trkpt lat="47.1908" lon="-1.84763">
        <ele>1</ele>
        <time>2023-11-12T09:44:57Z</time>
      </trkpt>
      <trkpt lat="47.19062" lon="-1.84792">
        <ele>1</ele>
        <time>2023-11-12T09:45:33Z</time>
      </trkpt>
      <trkpt lat="47.19058" lon="-1.848">
        <ele>2</ele>
        <time>2023-11-12T09:45:42Z</time>
      </trkpt>
      <trkpt lat="47.19056" lon="-1.84836">
        <ele>2</ele>
        <time>2023-11-12T09:46:14Z</time>
      </trkpt>
      <trkpt lat="47.19055" lon="-1.84889">
        <ele>2</ele>
        <time>2023-11-12T09:47:02Z</time>
      </trkpt>
      <trkpt lat="47.19057" lon="-1.84901">
        <ele>2</ele>
        <time>2023-11-12T09:47:14Z</time>
      </trkpt>
      <trkpt lat="47.19072" lon="-1.84921">
        <ele>2</ele>
        <time>2023-11-12T09:47:41Z</time>
      </trkpt>
      <trkpt lat="47.19087" lon="-1.84922">
        <ele>3</ele>
        <time>2023-11-12T09:48:01Z</time>
      </trkpt>
      <trkpt lat="47.19125" lon="-1.84939">
        <ele>3</ele>
        <time>2023-11-12T09:48:54Z</time>
      </trkpt>
      <trkpt lat="47.19135" lon="-1.84946">
        <ele>3</ele>
        <time>2023-11-12T09:49:08Z</time>
      </trkpt>
      <trkpt lat="47.19151" lon="-1.84971">
        <ele>3</ele>
        <time>2023-11-12T09:49:40Z</time>
      </trkpt>
      <trkpt lat="47.1916" lon="-1.85012">
        <ele>2</ele>
        <time>2023-11-12T09:50:19Z</time>
      </trkpt>
      <trkpt lat="47.19164" lon="-1.85054">
        <ele>1</ele>
        <time>2023-11-12T09:50:57Z</time>
      </trkpt>
      <trkpt lat="47.19173" lon="-1.85113">
        <ele>2</ele>
        <time>2023-11-12T09:51:52Z</time>
      </trkpt>
      <trkpt lat="47.19185" lon="-1.85165">
        <ele>3</ele>
        <time>2023-11-12T09:52:42Z</time>
      </trkpt>
      <trkpt lat="47.19193" lon="-1.85189">
        <ele>3</ele>
        <time>2023-11-12T09:53:06Z</time>
      </trkpt>
      <trkpt lat="47.19196" lon="-1.85192">
        <ele>3</ele>
        <time>2023-11-12T09:53:11Z</time>
      </trkpt>
      <trkpt lat="47.19204" lon="-1.85221">
        <ele>3</ele>
        <time>2023-11-12T09:53:39Z</time>
      </trkpt>
      <trkpt lat="47.19231" lon="-1.85293">
        <ele>4</ele>
        <time>2023-11-12T09:54:54Z</time>
      </trkpt>
      <trkpt lat="47.19246" lon="-1.85303">
        <ele>4</ele>
        <time>2023-11-12T09:55:16Z</time>
      </trkpt>
      <trkpt lat="47.19252" lon="-1.85319">
        <ele>4</ele>
        <time>2023-11-12T09:55:32Z</time>
      </trkpt>
      <trkpt lat="47.19244" lon="-1.85334">
        <ele>4</ele>
        <time>2023-11-12T09:55:50Z</time>
      </trkpt>
      <trkpt lat="47.19248" lon="-1.85346">
        <ele>4</ele>
        <time>2023-11-12T09:56:02Z</time>
      </trkpt>
      <trkpt lat="47.19238" lon="-1.85361">
        <ele>4</ele>
        <time>2023-11-12T09:56:21Z</time>
      </trkpt>
      <trkpt lat="47.19234" lon="-1.85371">
        <ele>4</ele>
        <time>2023-11-12T09:56:31Z</time>
      </trkpt>
      <trkpt lat="47.19239" lon="-1.85387">
        <ele>4</ele>
        <time>2023-11-12T09:56:47Z</time>
      </trkpt>
      <trkpt lat="47.1925" lon="-1.85404">
        <ele>3</ele>
        <time>2023-11-12T09:57:09Z</time>
      </trkpt>
      <trkpt lat="47.19276" lon="-1.85427">
        <ele>3</ele>
        <time>2023-11-12T09:57:49Z</time>
      </trkpt>
      <trkpt lat="47.19277" lon="-1.85423">
        <ele>3</ele>
        <time>2023-11-12T09:57:53Z</time>
      </trkpt>
      <trkpt lat="47.19268" lon="-1.85411">
        <ele>3</ele>
        <time>2023-11-12T09:58:09Z</time>
      </trkpt>
      <trkpt lat="47.19251" lon="-1.85405">
        <ele>3</ele>
        <time>2023-11-12T09:58:32Z</time>
      </trkpt>
    </trkseg>
  </trk>
</gpx>